Time;durP1;ratioP1;P1;durP2;ratioP2;P2;SDS_P1;SDS_P2;PMS_P1;PMS_P2;Temp;Humidity;BMP_temperature;BMP_pressure;BME280_temperature;BME280_humidity;BME280_pressure;Samples;Min_cycle;Max_cycle;Signal;HPM_P1;HPM_P2
2022/04/30 00:00:11;;;;;;;6.63;3.40;;;5.10;99.90;;;;;;4422887;28;656047;-69
2022/04/30 00:02:59;;;;;;;9.17;3.53;;;5.10;99.90;;;;;;4439901;28;655945;-69
2022/04/30 00:05:46;;;;;;;7.57;3.90;;;5.00;99.90;;;;;;4420234;28;655721;-69
2022/04/30 00:08:33;;;;;;;10.57;3.87;;;4.90;99.90;;;;;;4447221;28;656156;-68
2022/04/30 00:11:22;;;;;;;6.07;3.40;;;5.00;99.90;;;;;;4415931;28;658168;-68
2022/04/30 00:14:09;;;;;;;7.40;3.60;;;5.00;99.90;;;;;;4444259;28;654831;-69
2022/04/30 00:16:57;;;;;;;8.03;3.90;;;5.10;99.90;;;;;;4425561;28;655379;-70
2022/04/30 00:19:44;;;;;;;7.60;3.40;;;5.00;99.90;;;;;;4441009;28;655295;-68
2022/04/30 00:22:31;;;;;;;12.70;3.80;;;5.00;99.90;;;;;;4422213;28;655472;-69
2022/04/30 00:25:18;;;;;;;6.93;3.43;;;4.90;99.90;;;;;;4441502;28;657031;-68
2022/04/30 00:28:07;;;;;;;7.47;3.67;;;4.90;99.90;;;;;;4426860;28;655213;-69
2022/04/30 00:30:55;;;;;;;7.87;3.90;;;4.80;99.90;;;;;;4446584;28;655417;-69
2022/04/30 00:33:47;;;;;;;8.20;3.40;;;4.70;99.90;;;;;;4422891;28;655966;-68
2022/04/30 00:36:34;;;;;;;8.73;4.00;;;4.50;99.90;;;;;;4426324;28;656332;-69
2022/04/30 00:39:21;;;;;;;7.13;3.60;;;4.50;99.90;;;;;;4427891;28;656305;-69
2022/04/30 00:42:11;;;;;;;10.33;4.53;;;4.50;99.90;;;;;;4444972;28;655677;-68
2022/04/30 00:45:00;;;;;;;12.73;3.77;;;4.40;99.90;;;;;;4419095;28;657226;-69
2022/04/30 00:47:47;;;;;;;9.60;3.80;;;4.30;99.90;;;;;;4418232;28;657223;-69
2022/04/30 00:50:34;;;;;;;7.03;3.47;;;4.10;99.90;;;;;;4446424;28;655555;-69
2022/04/30 00:53:22;;;;;;;8.77;3.83;;;4.10;99.90;;;;;;4423805;28;656854;-69
2022/04/30 00:56:11;;;;;;;8.97;3.50;;;4.10;99.90;;;;;;4447081;28;655908;-69
2022/04/30 00:58:59;;;;;;;5.57;3.17;;;4.00;99.90;;;;;;4428208;28;655857;-69
2022/04/30 01:01:48;;;;;;;7.40;3.33;;;4.00;99.90;;;;;;4428419;28;655583;-69
2022/04/30 01:04:35;;;;;;;10.53;3.47;;;3.90;99.90;;;;;;4430560;28;655757;-70
2022/04/30 01:07:22;;;;;;;10.53;4.00;;;3.90;99.90;;;;;;4451535;28;656863;-69
2022/04/30 01:10:10;;;;;;;10.07;4.33;;;3.80;99.90;;;;;;4452015;28;655456;-69
2022/04/30 01:12:57;;;;;;;11.93;4.80;;;3.80;99.90;;;;;;4425396;28;657593;-69
2022/04/30 01:15:44;;;;;;;11.47;4.37;;;3.70;99.90;;;;;;4448018;28;656460;-68
2022/04/30 01:18:34;;;;;;;12.53;5.00;;;3.60;99.90;;;;;;4428497;28;656128;-68
2022/04/30 01:21:21;;;;;;;14.20;4.63;;;3.50;99.90;;;;;;4428758;28;657571;-69
2022/04/30 01:24:10;;;;;;;10.53;4.80;;;3.40;99.90;;;;;;4450759;28;657052;-68
2022/04/30 01:26:58;;;;;;;7.73;4.47;;;3.40;99.90;;;;;;4425188;28;657203;-69
2022/04/30 01:29:45;;;;;;;9.40;4.37;;;3.30;99.90;;;;;;4403214;28;655418;-70
2022/04/30 01:38:42;;;;;;;10.83;4.47;;;3.20;99.90;;;;;;4394418;28;655824;-68
2022/04/30 01:41:30;;;;;;;16.67;4.47;;;3.20;99.90;;;;;;4427784;28;656169;-68
2022/04/30 01:44:19;;;;;;;10.87;4.53;;;3.10;99.90;;;;;;4399950;28;657031;-69
2022/04/30 01:47:06;;;;;;;15.03;4.73;;;3.00;99.90;;;;;;4403185;28;656819;-68
2022/04/30 01:49:54;;;;;;;9.33;4.17;;;3.00;99.90;;;;;;4416789;28;656767;-69
2022/04/30 01:52:41;;;;;;;14.13;4.97;;;2.90;99.90;;;;;;4402565;28;655279;-69
2022/04/30 01:55:28;;;;;;;20.27;5.30;;;2.90;99.90;;;;;;4419667;28;657278;-68
2022/04/30 01:58:17;;;;;;;9.77;5.00;;;2.90;99.90;;;;;;4399185;28;657731;-70
2022/04/30 02:01:07;;;;;;;10.23;4.20;;;2.80;99.90;;;;;;4421477;28;655233;-68
2022/04/30 02:03:55;;;;;;;9.23;4.80;;;2.80;99.90;;;;;;4405351;28;656861;-69
2022/04/30 02:06:42;;;;;;;14.70;4.63;;;2.80;99.90;;;;;;4412289;28;656241;-68
2022/04/30 02:09:30;;;;;;;9.98;4.72;;;2.70;99.90;;;;;;4440797;28;656406;-68
2022/04/30 02:12:17;;;;;;;9.77;4.57;;;2.70;99.90;;;;;;4414967;28;656845;-69
2022/04/30 02:15:08;;;;;;;9.95;4.45;;;2.70;99.90;;;;;;4443213;28;655250;-70
2022/04/30 02:17:55;;;;;;;10.97;5.23;;;2.60;99.90;;;;;;4404824;28;656132;-70
2022/04/30 02:20:44;;;;;;;9.27;4.87;;;2.60;99.90;;;;;;4441514;28;656846;-68
2022/04/30 02:23:31;;;;;;;14.77;5.27;;;2.70;99.90;;;;;;4428420;28;655813;-68
2022/04/30 02:26:19;;;;;;;10.70;4.77;;;2.70;99.90;;;;;;4445167;28;657496;-68
2022/04/30 02:29:07;;;;;;;12.13;4.63;;;2.70;99.90;;;;;;4423754;28;656223;-69
2022/04/30 02:31:56;;;;;;;12.10;4.23;;;2.70;99.90;;;;;;4443325;28;657419;-68
2022/04/30 02:34:43;;;;;;;7.13;3.67;;;2.60;99.90;;;;;;4417308;28;656795;-68
2022/04/30 02:37:30;;;;;;;10.52;4.38;;;2.70;99.90;;;;;;4432500;28;656047;-70
2022/04/30 02:40:18;;;;;;;12.97;3.67;;;2.70;99.90;;;;;;4448755;28;656534;-68
2022/04/30 02:43:06;;;;;;;9.17;3.63;;;2.70;99.90;;;;;;4434060;28;656321;-69
2022/04/30 02:45:53;;;;;;;7.40;3.27;;;2.70;99.90;;;;;;4449209;28;655382;-68
2022/04/30 02:48:42;;;;;;;7.30;3.70;;;2.70;99.90;;;;;;4424487;28;655643;-68
2022/04/30 02:51:29;;;;;;;7.15;3.33;;;2.60;99.90;;;;;;4445422;28;656251;-68
2022/04/30 02:54:16;;;;;;;9.50;3.80;;;2.50;99.90;;;;;;4417212;28;655867;-69
2022/04/30 02:57:04;;;;;;;8.97;3.60;;;2.60;99.90;;;;;;4446186;28;655701;-70
2022/04/30 02:59:53;;;;;;;6.77;3.23;;;2.60;99.90;;;;;;4422954;28;655113;-69
2022/04/30 03:02:41;;;;;;;7.50;2.90;;;2.60;99.90;;;;;;4423932;28;656015;-69
2022/04/30 03:05:31;;;;;;;6.27;2.70;;;2.60;99.90;;;;;;4446080;28;655888;-68
2022/04/30 03:08:20;;;;;;;7.87;3.57;;;2.60;99.90;;;;;;4421253;28;655481;-68
2022/04/30 03:11:08;;;;;;;5.50;2.90;;;2.60;99.90;;;;;;4427252;28;656609;-69
2022/04/30 03:13:56;;;;;;;6.67;2.60;;;2.60;99.90;;;;;;4436111;28;655458;-70
2022/04/30 03:22:54;;;;;;;5.90;2.73;;;2.80;99.90;;;;;;4402767;28;655707;-69
2022/04/30 03:25:41;;;;;;;7.43;2.47;;;2.80;99.90;;;;;;4422888;28;655547;-69
2022/04/30 03:28:28;;;;;;;6.63;2.75;;;2.80;99.90;;;;;;4443843;28;655800;-69
2022/04/30 03:31:18;;;;;;;6.60;3.17;;;2.80;99.90;;;;;;4425488;28;655214;-69
2022/04/30 03:34:05;;;;;;;7.87;2.60;;;2.80;99.90;;;;;;4425266;28;655516;-70
2022/04/30 03:36:53;;;;;;;5.40;2.83;;;2.90;99.90;;;;;;4444006;28;655969;-69
2022/04/30 03:39:42;;;;;;;6.20;2.37;;;3.00;99.90;;;;;;4436274;28;655251;-70
2022/04/30 03:42:29;;;;;;;3.97;2.37;;;3.00;99.90;;;;;;4444563;28;655895;-69
2022/04/30 03:45:16;;;;;;;3.95;1.92;;;3.10;99.90;;;;;;4420742;28;656055;-70
2022/04/30 03:48:03;;;;;;;7.97;2.27;;;3.20;99.90;;;;;;4442066;28;655906;-69
2022/04/30 03:50:52;;;;;;;7.97;2.40;;;3.20;99.90;;;;;;4424070;28;655255;-69
2022/04/30 03:53:39;;;;;;;9.20;2.93;;;3.40;99.90;;;;;;4445585;28;655337;-69
2022/04/30 03:56:28;;;;;;;5.53;3.00;;;3.60;99.90;;;;;;4426933;28;656101;-69
2022/04/30 03:59:15;;;;;;;5.20;2.67;;;4.00;99.90;;;;;;4425593;28;655839;-70
2022/04/30 04:02:03;;;;;;;7.23;2.83;;;4.00;99.90;;;;;;4438257;28;656468;-69
2022/04/30 04:04:52;;;;;;;8.07;2.40;;;4.00;99.90;;;;;;4422328;28;655252;-70
2022/04/30 04:07:39;;;;;;;4.90;2.33;;;4.10;99.90;;;;;;4444213;28;655503;-69
2022/04/30 04:10:27;;;;;;;4.90;2.80;;;4.20;99.90;;;;;;4425176;28;656143;-69
2022/04/30 04:19:28;;;;;;;11.80;3.20;;;4.80;99.90;;;;;;4405475;28;655341;-70
2022/04/30 04:22:15;;;;;;;11.00;3.83;;;5.10;99.90;;;;;;4435775;28;657073;-70
2022/04/30 04:28:07;;;;;;;8.50;3.90;;;5.50;99.30;;;;;;4397032;28;656058;-69
2022/04/30 04:30:56;;;;;;;8.07;3.80;;;5.70;99.90;;;;;;4446924;28;655481;-69
2022/04/30 04:33:43;;;;;;;7.00;3.80;;;6.00;96.40;;;;;;4421442;28;656447;-70
2022/04/30 04:36:30;;;;;;;9.00;3.83;;;6.30;90.70;;;;;;4428392;28;656107;-69
2022/04/30 04:39:17;;;;;;;8.00;3.30;;;6.50;91.20;;;;;;4446595;28;656830;-69
2022/04/30 04:42:07;;;;;;;13.83;3.70;;;6.70;79.70;;;;;;4445054;28;655501;-70
2022/04/30 04:44:54;;;;;;;7.27;3.37;;;7.00;73.30;;;;;;4446047;28;656727;-69
2022/04/30 04:47:43;;;;;;;5.57;2.90;;;7.20;80.40;;;;;;4428612;28;655729;-69
2022/04/30 04:50:31;;;;;;;8.67;3.80;;;7.40;92.90;;;;;;4428780;28;655944;-69
2022/04/30 04:53:18;;;;;;;15.70;4.73;;;7.60;93.00;;;;;;4450947;28;656932;-69
2022/04/30 04:56:06;;;;;;;13.93;5.07;;;7.90;89.50;;;;;;4430832;28;656894;-70
2022/04/30 04:58:53;;;;;;;16.17;5.30;;;8.20;79.70;;;;;;4447801;28;657543;-69
2022/04/30 05:01:40;;;;;;;13.27;5.05;;;8.50;72.20;;;;;;4423092;28;656438;-70
2022/04/30 05:04:29;;;;;;;11.37;4.77;;;8.60;68.60;;;;;;4447356;28;657188;-69
2022/04/30 05:07:17;;;;;;;9.05;3.92;;;8.90;66.50;;;;;;4425440;28;656117;-69
2022/04/30 05:10:05;;;;;;;13.30;4.90;;;9.10;69.00;;;;;;4444564;28;656618;-69
2022/04/30 05:12:52;;;;;;;11.53;4.40;;;9.20;73.20;;;;;;4424171;28;656719;-70
2022/04/30 05:15:40;;;;;;;8.03;3.93;;;9.40;67.50;;;;;;4449047;28;656607;-69
2022/04/30 05:18:27;;;;;;;10.10;4.13;;;9.50;64.70;;;;;;4428780;28;657359;-69
2022/04/30 05:21:16;;;;;;;12.57;3.80;;;9.70;62.10;;;;;;4444238;28;657108;-69
2022/04/30 05:24:03;;;;;;;10.47;3.60;;;9.80;61.80;;;;;;4420512;28;657238;-70
2022/04/30 05:26:50;;;;;;;6.00;3.20;;;10.10;59.80;;;;;;4424157;28;656594;-70
2022/04/30 05:29:38;;;;;;;7.93;3.30;;;10.20;58.10;;;;;;4443930;28;657424;-69
2022/04/30 05:32:25;;;;;;;8.60;3.57;;;10.50;57.10;;;;;;4439689;28;656058;-70
2022/04/30 05:35:12;;;;;;;4.63;2.90;;;10.60;56.70;;;;;;4451799;28;657313;-69
2022/04/30 05:38:01;;;;;;;11.73;3.00;;;10.80;54.40;;;;;;4444454;28;656152;-70
2022/04/30 05:40:48;;;;;;;5.93;3.27;;;10.90;55.60;;;;;;4415352;28;659677;-69
2022/04/30 05:43:36;;;;;;;5.60;3.50;;;11.10;53.90;;;;;;4419949;28;658472;-70
2022/04/30 05:46:23;;;;;;;6.43;3.37;;;11.10;54.30;;;;;;4446021;28;657503;-69
2022/04/30 05:49:10;;;;;;;5.37;3.30;;;11.30;53.40;;;;;;4418643;28;656495;-70
2022/04/30 05:51:57;;;;;;;8.13;4.10;;;11.40;53.30;;;;;;4452128;28;656550;-69
2022/04/30 05:54:46;;;;;;;13.07;3.40;;;11.50;51.60;;;;;;4444982;28;656761;-69
2022/04/30 05:57:33;;;;;;;6.80;3.00;;;11.50;51.00;;;;;;4421533;28;658597;-70
2022/04/30 06:00:21;;;;;;;7.83;3.03;;;11.70;51.00;;;;;;4443556;28;657053;-67
2022/04/30 06:03:08;;;;;;;6.77;3.20;;;11.80;51.20;;;;;;4443192;28;657663;-67
2022/04/30 06:05:55;;;;;;;7.10;3.40;;;11.90;49.70;;;;;;4425898;28;657716;-67
2022/04/30 06:08:42;;;;;;;5.97;3.00;;;12.00;50.90;;;;;;4451697;28;657712;-67
2022/04/30 06:11:31;;;;;;;6.50;3.70;;;12.10;49.90;;;;;;4444017;28;656452;-67
2022/04/30 06:14:18;;;;;;;7.37;3.33;;;12.10;49.30;;;;;;4415116;28;657885;-67
2022/04/30 06:17:05;;;;;;;7.70;3.50;;;12.20;49.40;;;;;;4424566;28;657027;-67
2022/04/30 06:19:52;;;;;;;5.93;3.13;;;12.30;48.60;;;;;;4466957;28;657041;-67
2022/04/30 06:22:40;;;;;;;6.13;3.50;;;12.30;48.70;;;;;;4499097;28;656822;-67
2022/04/30 06:25:35;;;;;;;9.55;3.83;;;12.40;50.20;;;;;;4444702;28;658371;-67
2022/04/30 06:28:32;;;;;;;5.93;3.27;;;12.40;48.30;;;;;;4480458;28;657204;-67
2022/04/30 06:31:23;;;;;;;9.57;3.63;;;12.50;49.30;;;;;;4440589;28;656555;-67
2022/04/30 06:34:10;;;;;;;10.90;5.20;;;12.60;50.40;;;;;;4408681;28;656869;-67
2022/04/30 06:36:57;;;;;;;10.37;4.83;;;12.70;48.60;;;;;;4443554;28;659490;-67
2022/04/30 06:39:45;;;;;;;9.03;4.77;;;12.70;47.50;;;;;;4438933;28;657873;-67
2022/04/30 06:42:40;;;;;;;10.80;4.30;;;12.70;49.00;;;;;;4448546;28;656827;-67
2022/04/30 06:45:29;;;;;;;12.73;5.50;;;12.80;47.70;;;;;;4397030;28;658071;-67
2022/04/30 06:48:16;;;;;;;11.53;4.70;;;12.90;47.00;;;;;;4422051;28;657580;-67
2022/04/30 06:51:03;;;;;;;10.07;4.93;;;13.00;48.40;;;;;;4444609;28;658435;-67
2022/04/30 06:57:11;;;;;;;15.87;5.40;;;13.10;46.10;;;;;;4353616;28;658414;-67
2022/04/30 06:59:59;;;;;;;10.63;4.87;;;13.10;46.40;;;;;;4436373;28;658151;-67
2022/04/30 07:02:47;;;;;;;12.10;4.77;;;13.20;46.60;;;;;;4423363;28;659388;-67
2022/04/30 07:05:35;;;;;;;14.33;4.43;;;13.30;46.70;;;;;;4444376;28;657384;-67
2022/04/30 07:08:22;;;;;;;8.40;4.30;;;13.40;46.80;;;;;;4422485;28;657994;-67
2022/04/30 07:11:09;;;;;;;8.73;4.03;;;13.50;45.70;;;;;;4441165;28;656905;-67
2022/04/30 07:13:56;;;;;;;8.47;4.27;;;13.40;45.10;;;;;;4422917;28;658967;-67
2022/04/30 07:16:44;;;;;;;6.10;3.70;;;13.60;46.40;;;;;;4438283;28;656323;-67
2022/04/30 07:19:33;;;;;;;12.32;4.00;;;13.90;45.50;;;;;;4424136;28;656501;-67
2022/04/30 07:22:20;;;;;;;8.57;3.93;;;14.10;44.70;;;;;;4609838;28;657584;-67
2022/04/30 07:25:08;;;;;;;7.63;3.70;;;13.90;43.00;;;;;;5083168;28;20691;-67
2022/04/30 07:27:55;;;;;;;7.00;3.83;;;14.00;44.20;;;;;;5084033;28;20575;-66
2022/04/30 07:30:42;;;;;;;8.10;4.23;;;14.20;42.40;;;;;;5082537;28;20219;-67
2022/04/30 07:33:30;;;;;;;7.57;4.10;;;14.30;43.20;;;;;;5087029;28;20204;-67
2022/04/30 07:36:18;;;;;;;7.13;4.23;;;14.10;44.00;;;;;;5089477;28;20229;-67
2022/04/30 07:39:05;;;;;;;11.57;4.07;;;14.40;44.30;;;;;;5089414;28;20204;-67
2022/04/30 07:41:54;;;;;;;14.23;3.80;;;14.40;43.70;;;;;;5080075;28;20278;-67
2022/04/30 07:44:41;;;;;;;9.23;4.40;;;14.60;44.10;;;;;;5086177;28;20655;-67
2022/04/30 07:47:29;;;;;;;6.70;3.90;;;14.70;42.80;;;;;;5087255;28;20257;-68
2022/04/30 07:50:17;;;;;;;6.17;3.80;;;15.00;42.70;;;;;;5084419;28;20205;-67
2022/04/30 07:53:06;;;;;;;7.60;3.87;;;15.20;42.50;;;;;;5082950;28;20191;-67
2022/04/30 07:55:54;;;;;;;9.03;4.07;;;15.40;41.10;;;;;;4852842;28;532800;-67
2022/04/30 07:58:41;;;;;;;7.77;4.33;;;15.60;42.10;;;;;;4425123;28;656787;-67
2022/04/30 08:01:29;;;;;;;6.50;4.13;;;15.50;40.90;;;;;;4443898;28;656701;-67
2022/04/30 08:04:16;;;;;;;9.60;4.13;;;15.50;40.90;;;;;;4419339;28;656342;-67
2022/04/30 08:07:03;;;;;;;9.17;4.17;;;15.40;39.80;;;;;;4443935;28;657211;-67
2022/04/30 08:09:52;;;;;;;10.77;4.73;;;15.50;41.00;;;;;;4426730;28;657107;-67
2022/04/30 08:12:39;;;;;;;8.30;4.13;;;15.00;40.30;;;;;;4443136;28;658039;-67
2022/04/30 08:15:27;;;;;;;8.13;3.90;;;15.40;40.90;;;;;;4419208;28;656265;-68
2022/04/30 08:18:14;;;;;;;8.47;4.13;;;15.80;41.00;;;;;;4443590;28;656842;-67
2022/04/30 08:21:01;;;;;;;12.10;4.23;;;16.00;39.30;;;;;;4422630;28;656369;-67
2022/04/30 08:23:48;;;;;;;10.53;4.33;;;16.30;41.70;;;;;;4443716;28;658300;-67
2022/04/30 08:26:37;;;;;;;8.53;4.37;;;16.30;38.60;;;;;;4424657;28;657699;-67
2022/04/30 08:29:26;;;;;;;8.10;4.50;;;16.50;40.10;;;;;;4436283;28;657561;-67
2022/04/30 08:32:15;;;;;;;7.03;4.10;;;15.90;37.10;;;;;;4422231;28;657306;-67
2022/04/30 08:35:02;;;;;;;7.90;4.10;;;16.00;37.80;;;;;;4417149;28;658186;-67
2022/04/30 08:37:49;;;;;;;8.47;4.70;;;16.50;41.10;;;;;;4444275;28;657713;-67
2022/04/30 08:40:36;;;;;;;8.97;5.10;;;16.80;38.40;;;;;;4427081;28;658670;-67
2022/04/30 08:43:25;;;;;;;10.53;4.63;;;16.90;39.20;;;;;;4442011;28;657252;-67
2022/04/30 08:46:12;;;;;;;9.57;4.20;;;16.50;39.20;;;;;;4418260;28;657855;-67
2022/04/30 08:49:00;;;;;;;9.90;4.87;;;16.90;39.00;;;;;;4439272;28;656703;-67
2022/04/30 08:51:47;;;;;;;12.43;5.07;;;16.80;36.90;;;;;;4423949;28;656745;-67
2022/04/30 08:54:34;;;;;;;15.60;5.10;;;16.90;36.50;;;;;;4445216;28;658323;-67
2022/04/30 08:57:22;;;;;;;8.97;5.20;;;16.40;39.10;;;;;;4421146;28;657432;-67
2022/04/30 09:00:12;;;;;;;9.87;5.47;;;16.10;38.90;;;;;;4440511;28;656913;-67
2022/04/30 09:03:00;;;;;;;8.03;4.67;;;16.70;39.60;;;;;;4418797;28;656507;-67
2022/04/30 09:05:48;;;;;;;9.73;5.33;;;17.10;39.10;;;;;;4414968;28;657683;-67
2022/04/30 09:08:35;;;;;;;7.83;4.90;;;17.20;38.90;;;;;;4425575;28;656697;-67
2022/04/30 09:11:29;;;;;;;10.67;5.00;;;17.20;37.60;;;;;;4437938;28;657758;-68
2022/04/30 09:14:23;;;;;;;9.40;4.50;;;17.20;37.20;;;;;;4400909;28;657899;-68
2022/04/30 09:17:13;;;;;;;10.37;5.20;;;17.20;36.70;;;;;;4421047;28;657280;-67
2022/04/30 09:20:01;;;;;;;10.20;5.53;;;16.90;38.80;;;;;;4427205;28;657578;-67
2022/04/30 09:22:48;;;;;;;11.90;5.03;;;17.70;36.00;;;;;;4443652;28;657798;-68
2022/04/30 09:25:35;;;;;;;9.40;5.40;;;17.90;35.10;;;;;;4430343;28;657675;-67
2022/04/30 09:28:26;;;;;;;13.67;5.00;;;18.40;37.50;;;;;;4449614;28;656583;-68
2022/04/30 09:31:14;;;;;;;8.97;5.03;;;18.30;37.30;;;;;;4421054;28;657688;-67
2022/04/30 09:37:41;;;;;;;8.70;5.00;;;18.10;36.00;;;;;;4424453;28;656459;-67
2022/04/30 09:40:22;;;;;;;9.10;4.87;;;17.70;34.50;;;;;;4403041;28;657907;-67
2022/04/30 09:43:16;;;;;;;10.70;4.97;;;17.60;37.50;;;;;;4416320;28;658250;-68
2022/04/30 09:46:05;;;;;;;12.07;5.63;;;18.30;38.70;;;;;;4421161;28;658029;-68
2022/04/30 09:55:04;;;;;;;10.07;5.07;;;18.80;36.70;;;;;;4420929;28;657249;-68
2022/04/30 09:57:51;;;;;;;12.03;5.60;;;18.80;35.90;;;;;;4419857;28;657389;-68
2022/04/30 10:00:38;;;;;;;11.33;5.50;;;18.20;35.40;;;;;;4443191;28;658877;-68
2022/04/30 10:03:28;;;;;;;8.20;4.70;;;17.10;34.90;;;;;;4424920;28;658803;-68
2022/04/30 10:06:15;;;;;;;11.70;4.73;;;17.40;37.40;;;;;;4437350;28;656305;-68
2022/04/30 10:09:08;;;;;;;8.97;5.07;;;18.20;37.50;;;;;;4445641;28;658788;-68
2022/04/30 10:12:02;;;;;;;8.00;4.40;;;17.60;34.90;;;;;;4402395;28;656626;-68
2022/04/30 10:15:01;;;;;;;9.43;4.83;;;18.20;38.50;;;;;;4419221;28;656934;-69
2022/04/30 10:17:49;;;;;;;9.50;4.57;;;18.80;37.80;;;;;;4426387;28;656633;-68
2022/04/30 10:20:36;;;;;;;12.17;5.00;;;18.10;33.30;;;;;;4436930;28;656453;-68
2022/04/30 10:23:24;;;;;;;9.80;4.80;;;17.40;33.20;;;;;;4457722;28;658227;-68
2022/04/30 10:26:12;;;;;;;7.30;4.00;;;17.40;33.00;;;;;;4418159;28;656705;-68
2022/04/30 10:29:00;;;;;;;8.20;4.60;;;17.60;33.60;;;;;;4446320;28;656152;-68
2022/04/30 10:31:48;;;;;;;8.87;4.40;;;17.60;35.80;;;;;;4431013;28;658113;-67
2022/04/30 10:34:35;;;;;;;9.05;4.60;;;17.70;36.20;;;;;;4428108;28;656417;-67
2022/04/30 10:37:32;;;;;;;14.03;5.27;;;17.20;32.90;;;;;;4450791;28;658491;-68
2022/04/30 10:40:19;;;;;;;12.67;4.07;;;18.50;35.90;;;;;;4421383;28;658362;-68
2022/04/30 10:43:19;;;;;;;14.73;6.90;;;18.30;34.90;;;;;;4423174;28;657755;-68
2022/04/30 10:46:17;;;;;;;6.73;3.77;;;18.30;35.50;;;;;;4395292;28;658144;-69
2022/04/30 10:49:05;;;;;;;8.77;4.47;;;18.60;37.70;;;;;;4420294;28;656629;-68
2022/04/30 10:51:55;;;;;;;10.17;4.30;;;18.40;35.10;;;;;;4420961;28;657081;-67
2022/04/30 10:54:42;;;;;;;9.47;4.40;;;17.70;34.00;;;;;;4423512;28;658389;-68
2022/04/30 10:57:29;;;;;;;10.17;4.20;;;17.90;33.50;;;;;;4444159;28;656388;-68
2022/04/30 11:00:21;;;;;;;9.90;3.97;;;18.20;36.50;;;;;;4418462;28;658798;-68
2022/04/30 11:03:09;;;;;;;8.63;4.10;;;17.90;33.40;;;;;;4415982;28;657195;-67
2022/04/30 11:05:57;;;;;;;9.20;4.47;;;17.10;33.50;;;;;;4425949;28;657043;-67
2022/04/30 11:08:44;;;;;;;7.87;4.23;;;17.20;34.20;;;;;;4438433;28;656979;-68
2022/04/30 11:11:31;;;;;;;7.33;4.57;;;16.70;32.40;;;;;;4422338;28;657022;-68
2022/04/30 11:14:19;;;;;;;11.27;4.50;;;17.20;37.20;;;;;;4439889;28;658007;-67
2022/04/30 11:17:08;;;;;;;9.47;4.40;;;17.80;36.80;;;;;;4419617;28;657866;-68
2022/04/30 11:19:55;;;;;;;10.57;4.50;;;16.90;33.70;;;;;;4430802;28;656286;-68
2022/04/30 11:22:43;;;;;;;11.30;4.50;;;17.80;38.30;;;;;;4438903;28;658398;-68
2022/04/30 11:25:35;;;;;;;12.00;4.70;;;17.60;37.70;;;;;;4432713;28;658768;-68
2022/04/30 11:28:29;;;;;;;12.33;4.50;;;17.30;37.70;;;;;;4417402;28;658569;-68
2022/04/30 11:31:19;;;;;;;11.33;5.10;;;17.30;38.60;;;;;;4389743;28;658441;-68
2022/04/30 11:34:12;;;;;;;9.63;5.03;;;17.70;38.10;;;;;;4418041;28;657482;-68
2022/04/30 11:37:00;;;;;;;10.90;4.63;;;18.20;38.70;;;;;;4422279;28;656436;-68
2022/04/30 11:39:48;;;;;;;11.33;4.60;;;18.30;35.20;;;;;;4422679;28;658878;-68
2022/04/30 11:42:35;;;;;;;13.10;5.13;;;17.70;36.90;;;;;;4427680;28;657354;-68
2022/04/30 11:45:24;;;;;;;10.87;4.83;;;17.60;38.50;;;;;;4447222;28;659057;-68
2022/04/30 11:48:11;;;;;;;9.77;5.03;;;18.00;37.90;;;;;;4419161;28;658251;-68
2022/04/30 11:51:00;;;;;;;11.10;5.20;;;17.70;35.70;;;;;;4444831;28;656670;-68
2022/04/30 11:53:47;;;;;;;8.00;5.13;;;17.80;36.70;;;;;;4424672;28;658009;-68
2022/04/30 11:56:34;;;;;;;12.47;4.93;;;18.10;37.30;;;;;;4445029;28;656838;-68
2022/04/30 11:59:29;;;;;;;9.30;5.40;;;17.70;36.10;;;;;;4422174;28;657467;-68
2022/04/30 12:02:16;;;;;;;12.15;5.45;;;17.70;37.60;;;;;;4399620;28;657857;-67
2022/04/30 12:05:04;;;;;;;9.43;4.70;;;17.70;37.50;;;;;;4443658;28;657536;-68
2022/04/30 12:07:59;;;;;;;8.90;5.10;;;17.90;39.30;;;;;;4425832;28;656320;-68
2022/04/30 12:10:55;;;;;;;10.13;4.70;;;17.90;36.20;;;;;;4421138;28;656880;-68
2022/04/30 12:13:42;;;;;;;11.77;4.60;;;17.70;36.70;;;;;;4397218;28;658056;-68
2022/04/30 12:16:37;;;;;;;10.57;5.00;;;17.70;39.20;;;;;;4444226;28;657445;-68
2022/04/30 12:25:37;;;;;;;10.43;5.00;;;17.90;39.00;;;;;;4402352;28;656660;-68
2022/04/30 12:28:24;;;;;;;11.02;4.90;;;18.30;36.40;;;;;;4443319;28;657446;-68
2022/04/30 12:31:12;;;;;;;11.80;5.40;;;17.70;38.30;;;;;;4420043;28;658653;-68
2022/04/30 12:33:59;;;;;;;10.77;5.00;;;18.10;39.60;;;;;;4443757;28;657741;-68
2022/04/30 12:36:53;;;;;;;9.50;5.60;;;18.10;38.10;;;;;;4425167;28;657664;-67
2022/04/30 12:39:42;;;;;;;13.33;5.20;;;18.60;36.40;;;;;;4405424;28;657087;-68
2022/04/30 12:42:30;;;;;;;9.23;5.33;;;18.40;38.80;;;;;;4443136;28;658572;-68
2022/04/30 12:45:18;;;;;;;10.10;5.47;;;17.90;35.20;;;;;;4421994;28;657718;-68
2022/04/30 12:48:06;;;;;;;10.80;4.93;;;18.90;35.10;;;;;;4437894;28;657985;-69
2022/04/30 12:50:54;;;;;;;15.70;5.10;;;19.00;35.60;;;;;;4448134;28;658255;-69
2022/04/30 12:53:41;;;;;;;9.40;4.77;;;19.40;37.10;;;;;;4429596;28;658393;-66
2022/04/30 12:56:29;;;;;;;10.53;6.07;;;19.10;35.20;;;;;;4446328;28;656581;-66
2022/04/30 12:59:18;;;;;;;8.20;4.87;;;18.30;38.60;;;;;;4430296;28;658022;-66
2022/04/30 13:02:07;;;;;;;9.33;5.20;;;18.20;38.00;;;;;;4429398;28;656558;-67
2022/04/30 13:04:54;;;;;;;12.43;5.27;;;18.70;39.60;;;;;;4444828;28;656818;-66
2022/04/30 13:07:42;;;;;;;11.43;5.80;;;19.00;35.70;;;;;;4429658;28;657771;-66
2022/04/30 13:13:34;;;;;;;16.97;5.27;;;18.50;37.30;;;;;;4423021;28;657960;-67
2022/04/30 13:16:22;;;;;;;11.40;5.60;;;19.00;39.10;;;;;;4428125;28;657406;-66
2022/04/30 13:19:10;;;;;;;14.03;5.80;;;18.90;37.10;;;;;;4448077;28;657330;-66
2022/04/30 13:21:57;;;;;;;10.80;5.77;;;18.60;35.90;;;;;;4426280;28;657837;-66
2022/04/30 13:24:44;;;;;;;11.47;6.00;;;18.40;38.80;;;;;;4448257;28;657314;-66
2022/04/30 13:27:32;;;;;;;11.63;5.43;;;18.40;37.00;;;;;;4427840;28;657697;-66
2022/04/30 13:30:19;;;;;;;11.70;6.17;;;18.20;38.30;;;;;;4449192;28;657765;-66
2022/04/30 13:33:08;;;;;;;13.47;5.60;;;18.00;37.90;;;;;;4428246;28;657618;-67
2022/04/30 13:35:56;;;;;;;11.50;5.93;;;17.90;37.80;;;;;;4438193;28;657780;-68
2022/04/30 13:38:45;;;;;;;14.30;5.90;;;17.60;39.40;;;;;;4446986;28;657521;-68
2022/04/30 13:41:32;;;;;;;14.27;5.33;;;17.50;40.00;;;;;;4427187;28;658114;-68
2022/04/30 13:44:19;;;;;;;14.27;6.10;;;17.60;38.40;;;;;;4451411;28;657945;-68
2022/04/30 13:47:07;;;;;;;10.77;6.07;;;17.90;38.90;;;;;;4431026;28;658249;-68
2022/04/30 13:49:56;;;;;;;14.23;6.57;;;18.10;40.50;;;;;;4443298;28;657226;-68
2022/04/30 13:52:43;;;;;;;11.43;5.87;;;18.70;37.60;;;;;;4407446;28;657910;-68
2022/04/30 13:55:32;;;;;;;10.93;5.00;;;19.00;37.40;;;;;;4424871;28;657852;-68
2022/04/30 13:58:19;;;;;;;12.30;6.10;;;19.20;38.00;;;;;;4448892;28;657727;-68
2022/04/30 14:01:06;;;;;;;8.70;5.17;;;19.50;35.20;;;;;;4429912;28;658212;-68
2022/04/30 14:03:54;;;;;;;10.83;5.33;;;19.70;35.40;;;;;;4450008;28;657614;-68
2022/04/30 14:06:42;;;;;;;11.30;5.40;;;20.20;38.70;;;;;;4430238;28;658480;-69
2022/04/30 14:09:29;;;;;;;13.53;5.43;;;21.00;36.40;;;;;;4442878;28;657393;-69
2022/04/30 14:12:17;;;;;;;8.97;4.83;;;20.70;38.30;;;;;;4429025;28;658240;-68
2022/04/30 14:15:05;;;;;;;10.63;5.47;;;20.90;34.40;;;;;;4454150;28;656298;-68
2022/04/30 14:20:57;;;;;;;8.80;5.33;;;20.40;34.20;;;;;;4404012;28;656979;-68
2022/04/30 14:23:47;;;;;;;10.80;5.40;;;20.50;34.60;;;;;;4446222;28;656680;-68
2022/04/30 14:26:37;;;;;;;9.80;5.70;;;21.70;32.20;;;;;;4424369;28;657811;-69
2022/04/30 14:29:24;;;;;;;9.37;5.13;;;22.40;30.90;;;;;;4430803;28;656777;-68
2022/04/30 14:32:11;;;;;;;12.07;4.97;;;22.60;30.40;;;;;;4430411;28;656684;-69
2022/04/30 14:35:00;;;;;;;10.73;5.17;;;22.50;30.60;;;;;;4448049;28;658629;-69
2022/04/30 14:37:48;;;;;;;10.03;5.80;;;21.60;32.20;;;;;;4425208;28;658954;-69
2022/04/30 14:40:39;;;;;;;12.40;6.10;;;21.10;32.90;;;;;;4439810;28;657788;-69
2022/04/30 14:43:27;;;;;;;11.40;5.70;;;20.40;31.80;;;;;;4427475;28;660751;-69
2022/04/30 14:46:14;;;;;;;12.53;6.37;;;20.10;34.40;;;;;;4448564;28;658041;-69
2022/04/30 14:49:01;;;;;;;16.30;5.93;;;20.30;33.80;;;;;;4427058;28;657269;-69
2022/04/30 14:51:48;;;;;;;9.50;5.30;;;20.20;34.20;;;;;;4448207;28;658459;-69
2022/04/30 14:54:36;;;;;;;10.00;6.07;;;20.70;33.60;;;;;;4428479;28;656176;-70
2022/04/30 14:57:24;;;;;;;12.87;6.23;;;20.80;32.80;;;;;;4451826;28;658048;-70
2022/04/30 15:00:12;;;;;;;45.77;18.47;;;21.10;32.30;;;;;;4424131;28;657597;-69
2022/04/30 15:02:59;;;;;;;19.43;11.87;;;20.90;32.20;;;;;;4446273;28;659534;-69
2022/04/30 15:05:47;;;;;;;10.40;5.80;;;20.50;33.40;;;;;;4427479;28;658199;-70
2022/04/30 15:08:34;;;;;;;14.13;6.07;;;20.60;32.60;;;;;;4447685;28;658014;-69